Time;durP1;ratioP1;P1;durP2;ratioP2;P2;SDS_P1;SDS_P2;PMS_P1;PMS_P2;Temp;Humidity;BMP_temperature;BMP_pressure;BME280_temperature;BME280_humidity;BME280_pressure;Samples;Min_cycle;Max_cycle;Signal;HPM_P1;HPM_P2
2022/03/31 00:01:44;;;;;;;6.82;4.20;;;18.00;41.30;17.10;99826.00;;;;5058691;28;20036;-65
2022/03/31 00:04:30;;;;;;;5.55;4.28;;;18.00;41.30;17.10;99818.00;;;;5055016;28;20602;-65
2022/03/31 00:07:19;;;;;;;5.05;3.83;;;17.90;41.30;17.10;99817.00;;;;5061692;28;20037;-65
2022/03/31 00:10:06;;;;;;;6.80;3.80;;;18.00;41.30;17.10;99809.00;;;;5061025;28;20040;-65
2022/03/31 00:12:52;;;;;;;6.10;3.72;;;18.00;41.30;17.10;99810.00;;;;5054827;28;20048;-65
2022/03/31 00:15:39;;;;;;;4.72;3.70;;;17.90;41.20;17.10;99803.00;;;;5044112;28;20542;-65
2022/03/31 00:18:29;;;;;;;5.65;3.95;;;17.90;41.30;17.10;99794.00;;;;5060992;28;20061;-65
2022/03/31 00:21:15;;;;;;;5.63;3.40;;;17.90;41.30;17.10;99800.00;;;;5056806;28;20044;-65
2022/03/31 00:24:01;;;;;;;3.75;3.38;;;18.00;41.40;17.10;99803.00;;;;5056709;28;20044;-64
2022/03/31 00:27:08;;;;;;;5.65;3.75;;;17.90;41.30;17.10;99799.00;;;;5056566;28;20075;-65
2022/03/31 00:29:54;;;;;;;4.85;3.53;;;17.90;41.20;17.10;99805.00;;;;5061399;28;20070;-65
2022/03/31 00:32:40;;;;;;;4.15;2.80;;;17.90;41.30;17.10;99790.00;;;;5052640;28;20040;-64
2022/03/31 00:35:27;;;;;;;4.20;3.33;;;17.90;41.30;17.10;99791.00;;;;5060204;28;20449;-65
2022/03/31 00:38:13;;;;;;;3.95;3.13;;;17.90;41.30;17.10;99786.00;;;;5038878;28;20530;-65
2022/03/31 00:40:59;;;;;;;4.88;3.50;;;17.90;41.30;17.10;99785.00;;;;5057574;28;20041;-65
2022/03/31 00:43:45;;;;;;;3.78;3.03;;;17.90;42.00;17.10;99788.00;;;;5066870;28;20031;-65
2022/03/31 00:46:31;;;;;;;3.85;2.78;;;17.90;41.30;17.10;99779.00;;;;5056046;28;20033;-65
2022/03/31 00:49:19;;;;;;;4.75;3.33;;;17.90;41.30;17.10;99778.00;;;;5063130;28;20153;-65
2022/03/31 00:52:06;;;;;;;4.75;3.47;;;17.90;41.40;17.10;99778.00;;;;5024549;28;20048;-65
2022/03/31 00:54:52;;;;;;;4.25;2.83;;;17.90;41.30;17.10;99776.00;;;;5047167;28;20048;-64
2022/03/31 00:57:44;;;;;;;4.35;3.20;;;17.90;41.30;17.10;99764.00;;;;5039593;28;20032;-65
2022/03/31 01:00:30;;;;;;;5.10;3.42;;;17.90;41.40;17.10;99766.00;;;;5069792;28;20037;-65
2022/03/31 01:03:17;;;;;;;4.25;2.90;;;17.90;41.30;17.10;99758.00;;;;5050139;28;20451;-65
2022/03/31 01:06:03;;;;;;;3.33;2.70;;;17.90;41.30;17.10;99755.00;;;;5053068;28;20124;-65
2022/03/31 01:08:49;;;;;;;3.90;2.70;;;17.90;41.40;17.10;99761.00;;;;5053066;28;20497;-65
2022/03/31 01:11:35;;;;;;;3.80;3.08;;;17.90;41.30;17.10;99757.00;;;;5064448;28;20039;-65
2022/03/31 01:14:21;;;;;;;2.85;2.65;;;17.90;42.10;17.10;99745.00;;;;5056198;28;20045;-65
2022/03/31 01:17:10;;;;;;;4.57;3.40;;;17.90;41.40;17.10;99750.00;;;;5063216;28;20123;-65
2022/03/31 01:19:56;;;;;;;3.47;2.88;;;17.90;41.40;17.10;99739.00;;;;5063072;28;20044;-65
2022/03/31 01:22:43;;;;;;;3.45;3.05;;;17.90;41.40;17.10;99748.00;;;;5056997;28;20129;-65
2022/03/31 01:25:30;;;;;;;4.60;2.80;;;17.90;41.40;17.10;99746.00;;;;5057005;28;20048;-65
2022/03/31 01:28:16;;;;;;;3.78;2.80;;;17.90;41.40;17.10;99748.00;;;;5055258;28;20279;-65
2022/03/31 01:31:02;;;;;;;4.70;2.92;;;17.90;41.40;17.10;99745.00;;;;5075961;28;20048;-65
2022/03/31 01:33:49;;;;;;;5.97;3.05;;;17.90;41.40;17.10;99740.00;;;;5060720;28;20532;-65
2022/03/31 01:36:36;;;;;;;4.03;3.30;;;17.90;41.40;17.10;99741.00;;;;5074407;28;20040;-65
2022/03/31 01:39:25;;;;;;;4.90;3.15;;;17.90;41.40;17.00;99747.00;;;;5057907;28;20056;-65
2022/03/31 01:42:12;;;;;;;5.13;2.72;;;17.90;41.40;17.00;99734.00;;;;5075922;28;20061;-65
2022/03/31 01:44:58;;;;;;;4.72;3.67;;;17.90;41.40;17.10;99738.00;;;;5065872;28;20076;-65
2022/03/31 01:47:44;;;;;;;4.07;3.25;;;17.90;41.40;17.00;99730.00;;;;5076726;28;20044;-65
2022/03/31 01:50:31;;;;;;;4.25;3.25;;;17.90;41.40;17.00;99725.00;;;;5089310;28;20119;-65
2022/03/31 01:53:19;;;;;;;3.70;3.25;;;17.90;41.40;17.00;99727.00;;;;5076578;28;20106;-65
2022/03/31 01:56:06;;;;;;;5.95;3.20;;;17.90;41.40;17.00;99720.00;;;;5071958;28;20541;-64
2022/03/31 01:58:52;;;;;;;3.28;2.80;;;17.90;41.50;17.00;99720.00;;;;5063716;28;20562;-65
2022/03/31 02:01:38;;;;;;;4.50;3.05;;;17.90;41.40;17.00;99712.00;;;;5073536;28;20040;-65
2022/03/31 02:04:25;;;;;;;4.32;3.40;;;17.90;41.40;17.00;99707.00;;;;5075324;28;20056;-65
2022/03/31 02:07:11;;;;;;;4.22;3.20;;;17.90;42.20;17.00;99708.00;;;;5075093;28;20502;-65
2022/03/31 02:09:57;;;;;;;4.35;3.20;;;17.90;41.50;17.00;99707.00;;;;5071083;28;20398;-65
2022/03/31 02:12:43;;;;;;;3.50;3.05;;;17.90;41.50;17.00;99707.00;;;;5081585;28;20043;-65
2022/03/31 02:15:29;;;;;;;5.78;3.15;;;17.90;41.50;17.00;99706.00;;;;5059587;28;20048;-64
2022/03/31 02:18:15;;;;;;;4.50;3.40;;;17.90;41.50;17.00;99699.00;;;;5057965;28;20521;-65
2022/03/31 02:21:01;;;;;;;4.97;3.65;;;17.90;41.50;17.00;99699.00;;;;5051468;28;20429;-65
2022/03/31 02:23:47;;;;;;;5.25;3.45;;;17.90;41.50;17.00;99699.00;;;;5062623;28;20170;-65
2022/03/31 02:26:34;;;;;;;4.28;3.40;;;17.90;41.50;17.00;99703.00;;;;5058496;28;20044;-65
2022/03/31 02:29:21;;;;;;;3.53;2.95;;;17.90;41.60;17.00;99701.00;;;;5071343;28;20036;-65
2022/03/31 02:32:07;;;;;;;4.80;3.33;;;17.90;41.50;17.00;99696.00;;;;5073860;28;20238;-65
2022/03/31 02:34:53;;;;;;;4.90;3.28;;;17.90;41.50;17.00;99696.00;;;;5079569;28;20066;-65
2022/03/31 02:37:39;;;;;;;3.88;3.20;;;17.90;41.60;17.00;99691.00;;;;5059267;28;20051;-65
2022/03/31 02:40:26;;;;;;;5.68;3.75;;;17.80;41.50;17.00;99685.00;;;;5089295;28;20470;-65
2022/03/31 02:43:12;;;;;;;4.20;3.22;;;17.80;41.50;17.00;99693.00;;;;5031382;28;20051;-65
2022/03/31 02:45:59;;;;;;;5.15;3.28;;;17.90;41.50;17.00;99685.00;;;;5043495;28;20462;-64
2022/03/31 02:48:45;;;;;;;3.70;3.25;;;17.90;41.50;17.00;99676.00;;;;5046118;28;20474;-65
2022/03/31 02:51:31;;;;;;;3.88;3.47;;;17.90;41.60;17.00;99680.00;;;;5058241;28;20048;-65
2022/03/31 02:57:22;;;;;;;4.68;3.60;;;17.90;41.50;17.00;99673.00;;;;5058642;28;20044;-65
2022/03/31 03:00:08;;;;;;;4.35;3.60;;;17.80;41.50;17.00;99667.00;;;;5044860;28;20044;-65
2022/03/31 03:02:54;;;;;;;4.35;3.72;;;17.80;41.50;17.00;99668.00;;;;5063732;28;20048;-65
2022/03/31 03:05:45;;;;;;;3.97;3.33;;;17.80;41.50;17.00;99661.00;;;;5074931;28;20436;-65
2022/03/31 03:08:32;;;;;;;4.60;3.47;;;17.90;41.50;17.00;99667.00;;;;5079559;28;20125;-65
2022/03/31 03:11:18;;;;;;;5.20;3.92;;;17.80;41.60;17.00;99659.00;;;;5072622;28;20375;-65
2022/03/31 03:14:05;;;;;;;5.63;4.03;;;17.80;41.50;17.00;99651.00;;;;5056175;28;20056;-65
2022/03/31 03:16:51;;;;;;;4.80;3.70;;;17.80;41.50;17.00;99657.00;;;;5077858;28;20307;-65
2022/03/31 03:19:37;;;;;;;5.68;4.30;;;17.90;41.60;17.00;99655.00;;;;5080284;28;20069;-65
2022/03/31 03:22:23;;;;;;;4.47;3.70;;;17.80;41.60;17.00;99653.00;;;;5079111;28;20062;-65
2022/03/31 03:25:09;;;;;;;7.15;3.95;;;17.80;41.60;17.00;99655.00;;;;5054543;28;20036;-65
2022/03/31 03:27:55;;;;;;;5.35;3.80;;;17.80;41.50;17.00;99659.00;;;;5050973;28;20064;-65
2022/03/31 03:30:41;;;;;;;4.57;3.60;;;17.80;41.50;17.00;99653.00;;;;5058833;28;20306;-65
2022/03/31 03:33:27;;;;;;;7.05;4.00;;;17.90;41.60;17.00;99648.00;;;;5064298;28;20457;-65
2022/03/31 03:36:16;;;;;;;4.47;3.78;;;17.80;41.50;17.00;99650.00;;;;5062108;28;20052;-65
2022/03/31 03:39:04;;;;;;;5.82;4.15;;;17.80;41.60;17.00;99644.00;;;;5047470;28;20055;-65
2022/03/31 03:41:50;;;;;;;6.43;3.95;;;17.80;41.60;17.00;99645.00;;;;5060442;28;20040;-65
2022/03/31 03:44:36;;;;;;;4.72;3.58;;;17.90;41.60;17.00;99650.00;;;;5062950;28;20047;-65
2022/03/31 03:47:22;;;;;;;6.55;4.45;;;17.90;41.70;17.00;99647.00;;;;5061498;28;20052;-65
2022/03/31 03:50:09;;;;;;;5.07;3.97;;;17.80;41.60;17.00;99644.00;;;;5041878;28;20375;-65
2022/03/31 03:52:55;;;;;;;5.60;3.45;;;17.80;41.60;17.00;99640.00;;;;5060690;28;20058;-65
2022/03/31 03:55:41;;;;;;;5.55;3.70;;;17.80;41.60;17.00;99643.00;;;;5055683;28;20048;-65
2022/03/31 03:58:27;;;;;;;3.85;3.22;;;17.80;41.60;17.00;99639.00;;;;5054930;28;20084;-65
2022/03/31 04:01:13;;;;;;;3.50;3.17;;;17.80;41.60;17.00;99643.00;;;;5055118;28;20040;-65
2022/03/31 04:03:59;;;;;;;4.05;3.65;;;17.80;41.60;17.00;99642.00;;;;5058381;28;20478;-65
2022/03/31 04:06:45;;;;;;;5.60;3.75;;;17.90;41.70;17.00;99636.00;;;;5054945;28;20047;-65
2022/03/31 04:09:31;;;;;;;4.53;3.08;;;17.80;41.60;16.90;99630.00;;;;5063325;28;20450;-65
2022/03/31 04:12:17;;;;;;;4.85;2.97;;;17.90;41.70;17.00;99629.00;;;;5045328;28;20055;-65
2022/03/31 04:15:04;;;;;;;5.57;3.50;;;17.80;41.60;17.00;99623.00;;;;5057138;28;20498;-65
2022/03/31 04:17:50;;;;;;;5.18;3.60;;;17.80;41.70;16.90;99619.00;;;;5059876;28;20051;-65
2022/03/31 04:20:36;;;;;;;5.53;3.63;;;17.90;41.70;17.00;99626.00;;;;5062773;28;20250;-65
2022/03/31 04:23:22;;;;;;;6.20;4.40;;;17.80;41.60;16.90;99625.00;;;;5058547;28;20047;-65
2022/03/31 04:26:09;;;;;;;5.03;3.60;;;17.80;41.70;16.90;99627.00;;;;5053296;28;20111;-65
2022/03/31 04:28:55;;;;;;;6.25;3.58;;;17.80;41.70;16.90;99628.00;;;;5058934;28;20044;-65
2022/03/31 04:31:44;;;;;;;4.88;3.35;;;17.80;41.60;16.90;99621.00;;;;5055026;28;20037;-65
2022/03/31 04:34:30;;;;;;;5.43;3.88;;;17.80;41.60;16.90;99627.00;;;;5044724;28;20041;-65
2022/03/31 04:37:17;;;;;;;6.28;3.88;;;17.80;41.60;16.90;99630.00;;;;5045386;28;20065;-65
2022/03/31 04:40:04;;;;;;;4.55;3.58;;;17.80;41.70;16.90;99632.00;;;;5056716;28;20094;-65
2022/03/31 04:42:50;;;;;;;5.28;3.33;;;17.80;41.60;16.90;99635.00;;;;5051324;28;20409;-65
2022/03/31 04:45:36;;;;;;;4.60;3.35;;;17.80;41.60;16.90;99628.00;;;;5064705;28;20035;-65
2022/03/31 04:48:23;;;;;;;5.95;3.63;;;17.80;41.60;16.90;99634.00;;;;5058166;28;20041;-65
2022/03/31 04:51:09;;;;;;;4.38;3.33;;;17.80;41.60;16.90;99627.00;;;;5052602;28;20040;-65
2022/03/31 04:53:55;;;;;;;5.03;3.45;;;17.80;41.60;16.90;99635.00;;;;5041943;28;20037;-65
2022/03/31 04:56:41;;;;;;;4.95;3.00;;;17.80;41.70;16.90;99631.00;;;;5057079;28;20097;-65
2022/03/31 04:59:27;;;;;;;3.88;3.33;;;17.80;41.60;16.90;99632.00;;;;5064359;28;20044;-65
2022/03/31 05:02:13;;;;;;;5.30;3.53;;;17.80;41.70;16.90;99633.00;;;;5048094;28;20518;-65
2022/03/31 05:04:59;;;;;;;5.20;3.70;;;17.80;41.70;16.90;99623.00;;;;5052939;28;20483;-65
2022/03/31 05:07:45;;;;;;;4.68;3.67;;;17.80;41.70;16.90;99631.00;;;;5061496;28;20045;-65
2022/03/31 05:10:31;;;;;;;4.15;3.47;;;17.80;41.70;16.90;99629.00;;;;5062310;28;20045;-65
2022/03/31 05:13:17;;;;;;;6.00;3.03;;;17.80;41.70;16.90;99636.00;;;;5057735;28;20044;-65
2022/03/31 05:16:05;;;;;;;5.70;3.20;;;17.80;41.70;16.90;99634.00;;;;5058902;28;20170;-65
2022/03/31 05:18:51;;;;;;;5.13;3.95;;;17.80;41.70;16.90;99637.00;;;;5056564;28;20094;-65
2022/03/31 05:21:37;;;;;;;7.18;3.35;;;17.80;41.70;16.90;99632.00;;;;5061864;28;20051;-65
2022/03/31 05:24:23;;;;;;;5.95;3.63;;;17.80;41.70;16.90;99635.00;;;;5051680;28;20045;-65
2022/03/31 05:27:09;;;;;;;5.22;3.38;;;17.80;41.70;16.90;99634.00;;;;5055092;28;20423;-65
2022/03/31 05:29:55;;;;;;;5.22;3.25;;;17.80;41.70;16.90;99633.00;;;;5060887;28;20044;-65
2022/03/31 05:32:41;;;;;;;5.82;3.58;;;17.80;41.80;16.90;99628.00;;;;5054334;28;20055;-65
2022/03/31 05:35:28;;;;;;;4.53;3.35;;;17.80;41.80;16.90;99627.00;;;;5043475;28;20044;-65
2022/03/31 05:38:14;;;;;;;4.25;3.35;;;17.80;41.80;16.90;99633.00;;;;5054409;28;20441;-65
2022/03/31 05:41:00;;;;;;;3.30;2.85;;;17.80;41.80;16.90;99632.00;;;;5056132;28;20043;-65
2022/03/31 05:43:46;;;;;;;4.47;3.00;;;17.80;41.90;16.90;99630.00;;;;5065032;28;20122;-65
2022/03/31 05:46:32;;;;;;;5.78;3.55;;;17.70;41.80;16.90;99631.00;;;;5056873;28;20390;-65
2022/03/31 05:49:18;;;;;;;5.45;3.47;;;17.70;41.80;16.90;99626.00;;;;5067225;28;20481;-65
2022/03/31 05:52:05;;;;;;;5.45;3.38;;;17.70;41.80;16.90;99632.00;;;;5051906;28;20510;-65
2022/03/31 05:54:51;;;;;;;6.47;3.60;;;17.70;41.90;16.90;99633.00;;;;5057949;28;20522;-65
2022/03/31 05:57:37;;;;;;;4.40;2.97;;;17.70;41.90;16.90;99633.00;;;;5054663;28;20039;-65
2022/03/31 06:00:23;;;;;;;5.60;3.38;;;17.80;42.00;16.90;99625.00;;;;5057296;28;20255;-65
2022/03/31 06:03:09;;;;;;;7.55;3.63;;;17.70;41.90;16.90;99629.00;;;;5066494;28;20167;-65
2022/03/31 06:05:55;;;;;;;4.82;3.38;;;17.70;42.00;16.90;99629.00;;;;5055013;28;20077;-65
2022/03/31 06:08:41;;;;;;;4.38;3.13;;;17.70;41.90;16.90;99630.00;;;;5061634;28;20121;-65
2022/03/31 06:11:27;;;;;;;6.35;3.25;;;17.70;42.00;16.90;99626.00;;;;5057535;28;20048;-65
2022/03/31 06:14:13;;;;;;;4.07;3.45;;;17.70;42.00;16.90;99634.00;;;;5056982;28;20044;-65
2022/03/31 06:16:59;;;;;;;5.05;3.85;;;17.70;42.00;16.90;99637.00;;;;5058839;28;20103;-65
2022/03/31 06:19:45;;;;;;;4.35;3.03;;;17.70;42.00;16.90;99631.00;;;;5058697;28;20098;-65
2022/03/31 06:22:31;;;;;;;5.10;3.08;;;17.80;42.00;16.90;99628.00;;;;5055627;28;20048;-64
2022/03/31 06:25:17;;;;;;;5.25;3.25;;;17.70;42.00;16.90;99635.00;;;;5059338;28;20049;-65
2022/03/31 06:28:04;;;;;;;6.45;3.60;;;17.70;42.00;16.90;99638.00;;;;5059031;28;20068;-65
2022/03/31 06:30:50;;;;;;;5.03;2.70;;;17.70;42.00;16.90;99639.00;;;;5068273;28;20068;-65
2022/03/31 06:33:37;;;;;;;4.78;3.30;;;17.70;42.00;16.90;99633.00;;;;5052653;28;20111;-65
2022/03/31 06:36:23;;;;;;;4.40;2.58;;;17.80;42.00;16.90;99634.00;;;;5062158;28;20079;-65
2022/03/31 06:39:13;;;;;;;6.70;3.28;;;17.70;42.00;16.90;99637.00;;;;5071896;28;20046;-65
2022/03/31 06:41:59;;;;;;;4.38;3.00;;;17.70;42.00;16.90;99633.00;;;;5064473;28;20195;-64
2022/03/31 06:44:45;;;;;;;4.55;3.15;;;17.70;42.00;16.90;99632.00;;;;5075672;28;20040;-65
2022/03/31 06:47:35;;;;;;;5.80;3.20;;;17.70;42.00;16.90;99639.00;;;;5061658;28;20040;-65
2022/03/31 06:50:21;;;;;;;4.35;2.83;;;17.70;42.00;16.90;99634.00;;;;5070178;28;20115;-65
2022/03/31 06:53:07;;;;;;;3.70;2.63;;;17.70;42.00;16.90;99632.00;;;;5053563;28;20142;-65
2022/03/31 06:55:53;;;;;;;5.43;3.53;;;17.70;42.00;16.90;99629.00;;;;5062119;28;20043;-65
2022/03/31 06:58:39;;;;;;;5.88;3.47;;;17.70;42.00;16.90;99626.00;;;;5068994;28;20048;-65
2022/03/31 07:01:25;;;;;;;5.25;3.25;;;17.70;42.00;16.90;99633.00;;;;5049001;28;20040;-65
2022/03/31 07:04:11;;;;;;;5.35;3.28;;;17.70;42.00;16.90;99624.00;;;;5057523;28;20044;-65
2022/03/31 07:06:57;;;;;;;5.38;3.28;;;17.70;42.00;16.90;99629.00;;;;5057776;28;20556;-65
2022/03/31 07:09:43;;;;;;;4.95;3.47;;;17.70;42.00;16.90;99631.00;;;;5061095;28;20029;-64
2022/03/31 07:12:31;;;;;;;5.17;3.67;;;17.70;42.00;16.90;99629.00;;;;5069183;28;20055;-65
2022/03/31 07:15:17;;;;;;;5.18;3.53;;;17.80;42.10;16.90;99630.00;;;;5068117;28;20310;-65
2022/03/31 07:18:04;;;;;;;6.70;3.17;;;17.70;42.00;16.90;99633.00;;;;5069799;28;20408;-65
2022/03/31 07:20:50;;;;;;;4.83;3.00;;;17.70;42.00;16.90;99632.00;;;;5047570;28;20070;-64
2022/03/31 07:23:36;;;;;;;6.13;3.22;;;17.80;42.10;16.90;99631.00;;;;5059320;28;20691;-65
2022/03/31 07:26:24;;;;;;;6.70;3.75;;;17.80;42.10;16.90;99632.00;;;;5048669;28;20101;-65
2022/03/31 07:29:11;;;;;;;4.80;3.45;;;17.80;42.00;16.90;99625.00;;;;5065291;28;20062;-65
2022/03/31 07:31:57;;;;;;;6.32;3.67;;;17.80;42.00;16.90;99636.00;;;;5061719;28;20045;-65
2022/03/31 07:34:43;;;;;;;5.38;3.55;;;17.80;42.00;16.90;99631.00;;;;5055136;28;20103;-65
2022/03/31 07:37:29;;;;;;;4.30;3.63;;;17.80;42.10;16.90;99635.00;;;;5056560;28;20490;-65
2022/03/31 07:40:15;;;;;;;4.10;3.47;;;17.80;42.00;16.90;99634.00;;;;5054261;28;20102;-65
2022/03/31 07:43:02;;;;;;;6.53;4.00;;;17.80;42.00;16.90;99633.00;;;;5030989;28;20498;-65
2022/03/31 07:45:48;;;;;;;7.00;3.60;;;17.80;42.00;16.90;99630.00;;;;5059319;28;20155;-64
2022/03/31 07:48:34;;;;;;;6.13;3.78;;;17.80;42.10;16.90;99630.00;;;;5063488;28;20036;-64
2022/03/31 07:51:20;;;;;;;5.13;4.18;;;17.80;42.00;16.90;99626.00;;;;5042984;28;20033;-65
2022/03/31 07:54:06;;;;;;;5.32;3.80;;;17.80;42.10;16.90;99625.00;;;;5053618;28;20442;-64
2022/03/31 07:56:53;;;;;;;5.43;3.85;;;17.80;42.10;16.90;99620.00;;;;5055258;28;20044;-65
2022/03/31 07:59:39;;;;;;;5.80;3.72;;;17.80;42.10;16.90;99624.00;;;;5062931;28;20545;-65
2022/03/31 08:02:26;;;;;;;7.05;3.90;;;17.80;42.10;16.90;99627.00;;;;5040994;28;20183;-65
2022/03/31 08:05:14;;;;;;;5.53;3.80;;;17.80;42.10;16.90;99623.00;;;;5046847;28;20081;-65
2022/03/31 08:08:00;;;;;;;5.20;3.83;;;17.80;42.10;16.90;99621.00;;;;5063218;28;20588;-64
2022/03/31 08:10:47;;;;;;;5.57;3.80;;;17.80;42.10;16.90;99625.00;;;;5055249;28;20143;-65
2022/03/31 08:13:33;;;;;;;6.90;3.77;;;17.80;42.10;16.90;99624.00;;;;5063415;28;20051;-65
2022/03/31 08:16:19;;;;;;;4.43;3.28;;;17.80;42.10;16.90;99623.00;;;;5053993;28;20033;-65
2022/03/31 08:19:05;;;;;;;4.75;3.25;;;17.80;42.10;16.90;99626.00;;;;5047794;28;20467;-65
2022/03/31 08:21:51;;;;;;;5.43;3.75;;;17.80;42.10;16.90;99621.00;;;;5056205;28;20052;-65
2022/03/31 08:24:37;;;;;;;5.10;3.50;;;17.80;42.10;16.90;99628.00;;;;5062845;28;20136;-65
2022/03/31 08:27:23;;;;;;;4.68;3.13;;;17.80;42.20;16.90;99627.00;;;;5060967;28;20470;-65
2022/03/31 08:30:16;;;;;;;5.70;3.90;;;17.80;42.10;16.90;99628.00;;;;5052280;28;20044;-65
2022/03/31 08:33:02;;;;;;;6.55;3.95;;;17.80;42.20;16.90;99626.00;;;;5058940;28;20129;-65
2022/03/31 08:35:48;;;;;;;5.20;3.28;;;17.80;42.10;16.90;99622.00;;;;5053870;28;20068;-64
2022/03/31 08:38:34;;;;;;;5.05;3.30;;;17.90;42.20;16.90;99623.00;;;;5058155;28;20055;-65
2022/03/31 08:41:23;;;;;;;4.65;2.95;;;17.80;42.20;16.90;99628.00;;;;5042272;28;20091;-65
2022/03/31 08:44:11;;;;;;;6.18;3.47;;;17.80;42.90;16.90;99630.00;;;;5038861;28;20037;-65
2022/03/31 08:46:57;;;;;;;;;;;17.80;42.20;16.90;99626.00;;;;5057039;28;20047;-65
2022/03/31 08:49:43;;;;;;;5.13;3.63;;;17.80;42.10;16.90;99632.00;;;;5076441;28;19939;-65
2022/03/31 08:52:29;;;;;;;8.00;3.30;;;17.80;42.10;16.90;99633.00;;;;5070317;28;20048;-64
2022/03/31 08:55:16;;;;;;;6.43;3.72;;;17.80;42.10;16.90;99631.00;;;;5061638;28;20043;-65
2022/03/31 08:58:02;;;;;;;6.45;3.55;;;17.80;42.10;16.90;99635.00;;;;5048620;28;20333;-65
2022/03/31 09:00:48;;;;;;;5.28;3.25;;;17.90;42.20;16.90;99635.00;;;;5059795;28;20440;-65
2022/03/31 09:03:35;;;;;;;4.93;3.72;;;17.80;42.20;16.90;99643.00;;;;5071109;28;20044;-65
2022/03/31 09:06:25;;;;;;;5.00;3.40;;;17.80;42.20;16.90;99638.00;;;;5058940;28;20457;-65
2022/03/31 09:09:12;;;;;;;6.80;3.88;;;17.80;42.20;16.90;99644.00;;;;5067409;28;20064;-64
2022/03/31 09:11:58;;;;;;;6.18;3.65;;;17.80;42.20;16.90;99643.00;;;;5092743;28;20039;-65
2022/03/31 09:14:44;;;;;;;4.85;3.40;;;17.80;42.20;16.90;99643.00;;;;5069905;28;20439;-65
2022/03/31 09:17:35;;;;;;;5.13;3.75;;;17.80;42.20;16.90;99636.00;;;;5078641;28;20039;-64
2022/03/31 09:20:21;;;;;;;7.75;3.97;;;17.90;42.20;16.90;99644.00;;;;5074819;28;20071;-65
2022/03/31 09:23:12;;;;;;;7.20;4.07;;;17.90;42.20;16.90;99644.00;;;;5077272;28;20044;-65
2022/03/31 09:26:09;;;;;;;6.60;3.70;;;17.80;42.10;17.00;99648.00;;;;5084671;28;20441;-64
2022/03/31 09:28:55;;;;;;;5.85;4.28;;;17.90;42.20;17.00;99643.00;;;;5060479;28;20458;-64
2022/03/31 09:31:42;;;;;;;6.70;4.50;;;17.90;42.10;16.90;99643.00;;;;5073324;28;20048;-65
2022/03/31 09:34:36;;;;;;;7.45;4.50;;;17.80;42.10;17.00;99646.00;;;;5060283;28;20051;-65
2022/03/31 09:37:31;;;;;;;7.28;4.90;;;17.80;42.10;17.00;99647.00;;;;5054912;28;20073;-65
2022/03/31 09:40:20;;;;;;;6.43;3.95;;;17.90;42.20;17.00;99639.00;;;;5060423;28;20048;-65
2022/03/31 09:43:06;;;;;;;6.40;4.60;;;17.90;42.10;17.00;99642.00;;;;5060397;28;20044;-65
2022/03/31 09:45:52;;;;;;;7.97;4.45;;;17.90;42.10;17.00;99638.00;;;;5074356;28;20036;-65
2022/03/31 09:48:40;;;;;;;7.88;4.60;;;17.90;42.10;17.00;99638.00;;;;5081242;28;20118;-65
2022/03/31 09:52:04;;;;;;;8.55;4.78;;;17.90;42.20;17.00;99632.00;;;;5072612;28;20123;-64
2022/03/31 09:54:51;;;;;;;5.40;4.03;;;17.90;42.10;17.00;99638.00;;;;5074697;28;20099;-65
2022/03/31 09:57:38;;;;;;;7.28;4.93;;;17.90;42.20;17.00;99642.00;;;;5078884;28;20040;-64
2022/03/31 10:00:25;;;;;;;6.72;5.25;;;17.80;42.10;16.90;99640.00;;;;5064020;28;20473;-65
2022/03/31 10:03:15;;;;;;;6.85;4.88;;;17.90;42.10;17.00;99631.00;;;;5054479;28;20097;-65
2022/03/31 10:06:01;;;;;;;7.32;4.95;;;17.90;42.20;17.00;99629.00;;;;5058700;28;20127;-65
2022/03/31 10:08:47;;;;;;;6.35;4.70;;;17.90;42.20;17.00;99625.00;;;;5058228;28;20406;-65
2022/03/31 10:11:38;;;;;;;6.80;4.82;;;17.90;42.20;17.00;99636.00;;;;5061746;28;20040;-65
2022/03/31 10:14:46;;;;;;;7.32;4.72;;;17.90;42.20;17.00;99621.00;;;;5038019;28;20084;-65
2022/03/31 10:17:32;;;;;;;7.23;5.20;;;17.90;42.20;17.00;99622.00;;;;5037626;28;20387;-64
2022/03/31 10:20:21;;;;;;;8.25;5.47;;;17.90;42.10;17.00;99625.00;;;;5036330;28;20090;-65
2022/03/31 10:26:27;;;;;;;7.85;5.25;;;17.90;42.20;17.00;99619.00;;;;5036264;28;20045;-65
2022/03/31 10:29:15;;;;;;;7.93;5.30;;;17.90;42.30;17.00;99623.00;;;;5049075;28;20512;-65
2022/03/31 10:32:03;;;;;;;8.20;5.80;;;17.90;42.30;17.00;99622.00;;;;5045963;28;20087;-65
2022/03/31 10:34:50;;;;;;;10.40;6.65;;;17.90;42.30;17.00;99622.00;;;;5059437;28;20037;-64
2022/03/31 10:37:37;;;;;;;11.00;6.78;;;17.90;42.30;17.00;99618.00;;;;5041914;28;20042;-65
2022/03/31 10:40:38;;;;;;;10.73;7.30;;;17.90;42.30;17.00;99617.00;;;;5066437;28;20041;-65
2022/03/31 10:43:29;;;;;;;10.73;6.68;;;17.90;42.30;17.00;99605.00;;;;5059270;28;20745;-65
2022/03/31 10:46:19;;;;;;;9.80;6.85;;;17.90;42.30;17.00;99608.00;;;;5058794;28;20040;-64
2022/03/31 10:49:12;;;;;;;11.10;7.38;;;17.90;42.30;17.00;99607.00;;;;5049703;28;20489;-65
2022/03/31 10:52:10;;;;;;;11.00;7.07;;;17.90;42.30;17.00;99599.00;;;;5059693;28;20266;-64
2022/03/31 10:55:10;;;;;;;12.02;8.38;;;17.90;42.30;17.00;99596.00;;;;5046448;28;20058;-64
2022/03/31 10:57:56;;;;;;;11.20;7.60;;;17.90;42.20;17.00;99599.00;;;;5060454;28;20051;-65
2022/03/31 11:00:42;;;;;;;10.00;6.95;;;17.90;42.20;17.00;99599.00;;;;5050225;28;20493;-65
2022/03/31 11:03:28;;;;;;;11.27;7.32;;;17.90;42.20;17.00;99600.00;;;;5063365;28;20068;-65
2022/03/31 11:06:15;;;;;;;11.07;7.93;;;17.90;42.20;17.00;99597.00;;;;5053413;28;20040;-65
2022/03/31 11:09:01;;;;;;;11.27;8.25;;;17.90;42.20;17.00;99606.00;;;;5065017;28;20207;-65
2022/03/31 11:11:55;;;;;;;13.52;8.27;;;17.90;42.20;17.00;99593.00;;;;5060668;28;20119;-65
2022/03/31 11:14:53;;;;;;;11.25;8.00;;;17.90;42.20;17.00;99597.00;;;;5067575;28;20053;-65
2022/03/31 11:17:41;;;;;;;12.87;8.50;;;17.90;42.10;17.00;99595.00;;;;5062676;28;20537;-65
2022/03/31 11:20:27;;;;;;;12.48;8.60;;;18.00;42.20;17.00;99598.00;;;;5052476;28;20668;-65
2022/03/31 11:23:13;;;;;;;12.00;8.02;;;17.90;42.10;17.00;99600.00;;;;5063711;28;20561;-65
2022/03/31 11:26:00;;;;;;;13.20;8.77;;;17.90;42.10;17.00;99595.00;;;;5059142;28;20037;-65
2022/03/31 11:28:47;;;;;;;13.18;8.32;;;17.90;42.10;17.00;99590.00;;;;5058855;28;20387;-65
2022/03/31 11:31:33;;;;;;;12.15;7.97;;;17.90;42.10;17.00;99594.00;;;;5066058;28;20040;-65
2022/03/31 11:34:22;;;;;;;14.25;9.65;;;17.90;42.10;17.00;99592.00;;;;5039467;28;20055;-65
2022/03/31 11:37:19;;;;;;;13.20;8.57;;;17.90;42.10;17.00;99591.00;;;;5051012;28;20043;-65
2022/03/31 11:40:06;;;;;;;12.00;8.52;;;18.00;42.10;17.00;99593.00;;;;5051427;28;20527;-65
2022/03/31 11:42:55;;;;;;;11.10;8.30;;;17.90;42.00;17.10;99582.00;;;;5050088;28;20157;-65
2022/03/31 11:45:50;;;;;;;12.77;8.13;;;17.90;42.00;17.00;99585.00;;;;5048132;28;20615;-65
2022/03/31 11:48:39;;;;;;;12.65;8.55;;;17.90;42.00;17.00;99580.00;;;;5048619;28;20114;-65
2022/03/31 11:51:26;;;;;;;12.38;9.10;;;17.90;42.00;17.00;99585.00;;;;5057923;28;20127;-65
2022/03/31 11:54:12;;;;;;;12.07;8.38;;;18.00;42.00;17.10;99584.00;;;;5029542;28;20053;-65
2022/03/31 11:57:03;;;;;;;11.38;7.85;;;17.90;41.90;17.10;99575.00;;;;5061272;28;20040;-65
2022/03/31 11:59:49;;;;;;;13.00;9.32;;;18.00;42.00;17.10;99584.00;;;;5063421;28;20044;-65
2022/03/31 12:02:35;;;;;;;12.02;8.57;;;18.00;42.00;17.10;99578.00;;;;5063932;28;20039;-65
2022/03/31 12:05:21;;;;;;;14.02;9.23;;;18.00;41.90;17.10;99571.00;;;;5061398;28;20049;-65
2022/03/31 12:08:07;;;;;;;12.93;9.35;;;17.90;41.80;17.10;99579.00;;;;5041792;28;20036;-65
2022/03/31 12:10:54;;;;;;;12.77;9.07;;;17.90;41.80;17.10;99578.00;;;;5047750;28;20047;-65
2022/03/31 12:13:55;;;;;;;15.45;9.73;;;18.00;41.90;17.10;99585.00;;;;5046325;28;20036;-64
2022/03/31 12:16:43;;;;;;;13.50;8.80;;;17.90;41.80;17.10;99585.00;;;;5058014;28;20279;-65
2022/03/31 12:19:39;;;;;;;;;;;18.00;41.80;17.00;99584.00;;;;5064813;28;20389;-65
2022/03/31 12:22:35;;;;;;;12.60;9.45;;;18.00;41.90;17.00;99587.00;;;;5063777;28;20011;-65
2022/03/31 12:25:35;;;;;;;12.90;9.02;;;18.00;41.70;17.00;99583.00;;;;5032961;28;20036;-65
2022/03/31 12:28:23;;;;;;;11.27;8.50;;;18.00;41.80;17.00;99585.00;;;;5046698;28;20049;-65
2022/03/31 12:31:31;;;;;;;12.48;8.70;;;18.00;41.70;17.00;99581.00;;;;5057809;28;20041;-65